createdAt,value
2018-12-23T00:02:17.851Z,9.60
2018-12-23T00:04:46.358Z,9.60
2018-12-23T00:07:14.655Z,9.50
2018-12-23T00:09:42.845Z,9.50
2018-12-23T00:12:11.080Z,9.50
2018-12-23T00:14:39.400Z,9.50
2018-12-23T00:17:07.633Z,9.50
2018-12-23T00:19:35.919Z,9.40
2018-12-23T00:22:04.530Z,9.50
2018-12-23T00:24:32.719Z,9.40
2018-12-23T00:27:00.918Z,9.40
2018-12-23T00:29:29.064Z,9.50
2018-12-23T00:31:57.361Z,9.40
2018-12-23T00:34:25.682Z,9.50
2018-12-23T00:36:54.098Z,9.50
2018-12-23T00:39:22.417Z,9.50
2018-12-23T00:41:50.566Z,9.50
2018-12-23T00:44:18.796Z,9.50
2018-12-23T00:46:46.955Z,9.50
2018-12-23T00:49:15.168Z,9.50
2018-12-23T00:51:43.336Z,9.50
2018-12-23T00:54:11.581Z,9.50
2018-12-23T00:56:39.759Z,9.40
2018-12-23T01:04:10.791Z,9.30
2018-12-23T01:06:39.223Z,9.30
2018-12-23T01:09:08.543Z,9.30
2018-12-23T01:11:36.767Z,9.30
2018-12-23T01:14:05.032Z,9.30
2018-12-23T01:16:33.304Z,9.30
2018-12-23T01:19:01.477Z,9.30
2018-12-23T01:21:29.666Z,9.30
2018-12-23T01:23:57.861Z,9.30
2018-12-23T01:26:26.048Z,9.20
2018-12-23T01:28:54.913Z,9.20
2018-12-23T01:31:23.194Z,9.20
2018-12-23T01:33:51.489Z,9.20
2018-12-23T01:36:19.771Z,9.20
2018-12-23T01:38:48.044Z,9.20
2018-12-23T01:41:16.313Z,9.10
2018-12-23T01:43:44.484Z,9.10
2018-12-23T01:46:12.673Z,9.10
2018-12-23T01:48:40.839Z,9.10
2018-12-23T01:51:09.019Z,9.10
2018-12-23T01:53:37.212Z,9.10
2018-12-23T01:56:05.477Z,9.10
2018-12-23T01:58:33.699Z,9.10
2018-12-23T02:01:02.024Z,9.00
2018-12-23T02:03:30.242Z,9.00
2018-12-23T02:05:58.545Z,8.90
2018-12-23T02:08:26.736Z,9.00
2018-12-23T02:10:55.216Z,9.00
2018-12-23T02:13:23.396Z,9.00
2018-12-23T02:15:51.637Z,9.00
2018-12-23T02:18:19.833Z,9.00
2018-12-23T02:20:48.037Z,9.00
2018-12-23T02:23:16.199Z,9.10
2018-12-23T02:25:44.381Z,9.10
2018-12-23T02:28:12.555Z,9.10
2018-12-23T02:30:40.740Z,9.10
2018-12-23T02:33:08.909Z,9.10
2018-12-23T02:35:37.132Z,9.10
2018-12-23T02:38:05.408Z,9.10
2018-12-23T02:40:33.571Z,9.10
2018-12-23T02:43:01.951Z,9.10
2018-12-23T02:45:30.112Z,9.00
2018-12-23T02:47:58.391Z,9.00
2018-12-23T02:50:26.584Z,9.00
2018-12-23T02:52:54.763Z,8.90
2018-12-23T02:55:22.936Z,8.90
2018-12-23T02:57:51.226Z,8.90
2018-12-23T03:00:19.442Z,8.80
2018-12-23T03:02:47.639Z,8.80
2018-12-23T03:05:15.842Z,8.80
2018-12-23T03:07:44.030Z,8.90
2018-12-23T03:10:12.294Z,8.80
2018-12-23T03:12:40.457Z,8.90
2018-12-23T03:15:08.695Z,8.90
2018-12-23T03:17:36.892Z,8.90
2018-12-23T03:20:05.448Z,8.80
2018-12-23T03:22:33.611Z,8.90
2018-12-23T03:25:01.785Z,8.90
2018-12-23T03:27:29.956Z,8.90
2018-12-23T03:29:58.156Z,9.00
2018-12-23T03:32:26.526Z,9.00
2018-12-23T03:34:54.799Z,9.00
2018-12-23T03:37:22.981Z,8.90
2018-12-23T03:39:51.148Z,9.00
2018-12-23T03:42:19.356Z,9.00
2018-12-23T03:44:47.630Z,8.90
2018-12-23T03:47:15.827Z,8.90
2018-12-23T03:49:44.128Z,8.90
2018-12-23T03:52:12.285Z,8.90
2018-12-23T03:54:40.478Z,8.90
2018-12-23T03:57:08.724Z,8.90
2018-12-23T03:59:36.982Z,8.90
2018-12-23T04:02:05.200Z,8.90
2018-12-23T04:04:33.433Z,8.80
2018-12-23T04:07:01.700Z,8.80
2018-12-23T04:09:29.912Z,8.80
2018-12-23T04:11:58.127Z,8.80
2018-12-23T04:14:26.358Z,8.80
2018-12-23T04:16:54.581Z,8.70
2018-12-23T04:19:22.936Z,8.70
2018-12-23T04:21:51.163Z,8.70
2018-12-23T04:24:19.336Z,8.60
2018-12-23T04:26:47.854Z,8.60
2018-12-23T04:29:16.111Z,8.60
2018-12-23T04:31:44.326Z,8.70
2018-12-23T04:34:12.520Z,8.70
2018-12-23T04:36:40.728Z,8.70
2018-12-23T04:39:08.939Z,8.80
2018-12-23T04:41:37.305Z,8.80
2018-12-23T04:44:05.478Z,8.80
2018-12-23T04:46:33.695Z,8.80
2018-12-23T04:49:01.858Z,8.80
2018-12-23T04:51:30.145Z,8.80
2018-12-23T04:53:58.324Z,8.80
2018-12-23T04:56:26.576Z,8.80
2018-12-23T04:58:55.405Z,8.80
2018-12-23T05:01:23.842Z,8.80
2018-12-23T05:03:52.201Z,8.80
2018-12-23T05:06:20.492Z,8.80
2018-12-23T05:08:48.669Z,8.80
2018-12-23T05:11:16.849Z,8.80
2018-12-23T05:13:45.148Z,8.80
2018-12-23T05:16:13.659Z,8.70
2018-12-23T05:18:41.924Z,8.70
2018-12-23T05:21:10.185Z,8.70
2018-12-23T05:23:38.484Z,8.60
2018-12-23T05:26:06.680Z,8.60
2018-12-23T05:28:34.930Z,8.50
2018-12-23T05:31:03.144Z,8.50
2018-12-23T05:33:31.353Z,8.50
2018-12-23T05:35:59.565Z,8.50
2018-12-23T05:38:27.796Z,8.50
2018-12-23T05:40:56.046Z,8.40
2018-12-23T05:43:24.320Z,8.40
2018-12-23T05:45:52.516Z,8.40
2018-12-23T05:48:21.867Z,8.40
2018-12-23T05:50:50.039Z,8.40
2018-12-23T05:53:18.221Z,8.40
2018-12-23T05:55:45.488Z,8.40
2018-12-23T05:58:13.685Z,8.40
2018-12-23T06:00:41.865Z,8.40
2018-12-23T06:03:10.034Z,8.40
2018-12-23T06:05:38.269Z,8.40
2018-12-23T06:08:06.465Z,8.40
2018-12-23T06:10:34.660Z,8.40
2018-12-23T06:13:02.874Z,8.40
2018-12-23T06:15:31.188Z,8.40
2018-12-23T06:17:59.423Z,8.40
2018-12-23T06:20:27.580Z,8.40
2018-12-23T06:22:55.754Z,8.40
2018-12-23T06:25:23.961Z,8.50
2018-12-23T06:27:52.257Z,8.50
2018-12-23T06:30:20.431Z,8.50
2018-12-23T06:32:48.576Z,8.50
2018-12-23T06:35:16.756Z,8.50
2018-12-23T06:37:44.944Z,8.50
2018-12-23T06:40:13.142Z,8.50
2018-12-23T06:42:41.324Z,8.60
2018-12-23T06:45:09.611Z,8.50
2018-12-23T06:47:37.779Z,8.50
2018-12-23T06:50:06.382Z,8.50
2018-12-23T06:52:34.573Z,8.50
2018-12-23T06:55:02.755Z,8.50
2018-12-23T06:57:31.124Z,8.50
2018-12-23T06:59:59.293Z,8.40
2018-12-23T07:02:27.608Z,8.40
2018-12-23T07:04:55.831Z,8.40
2018-12-23T07:07:24.028Z,8.40
2018-12-23T07:09:59.022Z,8.40
2018-12-23T07:12:27.240Z,8.40
2018-12-23T07:14:55.458Z,8.40
2018-12-23T07:17:23.634Z,8.40
2018-12-23T07:19:52.082Z,8.40
2018-12-23T07:22:20.326Z,8.40
2018-12-23T07:24:48.488Z,8.40
2018-12-23T07:27:16.705Z,8.40
2018-12-23T07:29:44.956Z,8.50
2018-12-23T07:32:13.181Z,8.50
2018-12-23T07:34:41.334Z,8.50
2018-12-23T07:37:09.515Z,8.50
2018-12-23T07:39:37.789Z,8.50
2018-12-23T07:42:05.956Z,8.50
2018-12-23T07:44:34.357Z,8.50
2018-12-23T07:47:02.640Z,8.50
2018-12-23T07:49:31.144Z,8.60
2018-12-23T07:51:59.480Z,8.60
2018-12-23T07:54:27.837Z,8.60
2018-12-23T07:56:56.054Z,8.60
2018-12-23T07:59:24.237Z,8.70
2018-12-23T08:01:52.549Z,8.70
2018-12-23T08:04:20.739Z,8.70
2018-12-23T08:06:48.956Z,8.70
2018-12-23T08:09:17.174Z,8.70
2018-12-23T08:11:45.374Z,8.80
2018-12-23T08:14:13.786Z,8.80
2018-12-23T08:16:41.934Z,8.80
2018-12-23T08:19:10.137Z,8.80
2018-12-23T08:21:38.343Z,8.80
2018-12-23T08:24:06.576Z,8.90
2018-12-23T08:26:34.894Z,8.90
2018-12-23T08:29:03.194Z,8.90
2018-12-23T08:31:31.382Z,9.00
2018-12-23T08:33:59.605Z,8.90
2018-12-23T08:36:27.900Z,8.90
2018-12-23T08:38:56.186Z,9.00
2018-12-23T08:41:24.423Z,9.00
2018-12-23T08:43:52.689Z,9.00
2018-12-23T08:46:20.866Z,9.00
2018-12-23T08:48:49.039Z,9.10
2018-12-23T08:51:17.738Z,9.10
2018-12-23T08:53:45.913Z,9.20
2018-12-23T08:56:14.133Z,9.20
2018-12-23T08:58:42.272Z,9.30
2018-12-23T09:01:10.583Z,9.30
2018-12-23T09:03:38.712Z,9.30
2018-12-23T09:06:06.899Z,9.30
2018-12-23T09:08:35.059Z,9.30
2018-12-23T09:11:03.335Z,9.30
2018-12-23T09:13:31.565Z,9.20
2018-12-23T09:15:59.880Z,9.20
2018-12-23T09:18:28.137Z,9.30
2018-12-23T09:20:56.317Z,9.20
2018-12-23T09:23:24.501Z,9.30
2018-12-23T09:25:52.824Z,9.30
2018-12-23T09:28:21.000Z,9.30
2018-12-23T09:30:49.176Z,9.40
2018-12-23T09:33:17.685Z,9.40
2018-12-23T09:35:45.885Z,9.40
2018-12-23T09:38:14.061Z,9.40
2018-12-23T09:40:42.245Z,9.40
2018-12-23T09:43:10.503Z,9.50
2018-12-23T09:45:38.778Z,9.50
2018-12-23T09:48:07.020Z,9.50
2018-12-23T09:50:41.850Z,9.50
2018-12-23T09:53:10.061Z,9.60
2018-12-23T09:55:38.329Z,9.60
2018-12-23T09:58:06.659Z,9.60
2018-12-23T10:00:34.981Z,9.70
2018-12-23T10:03:03.309Z,9.70
2018-12-23T10:05:31.741Z,9.70
2018-12-23T10:07:59.897Z,9.70
2018-12-23T10:10:28.596Z,9.70
2018-12-23T10:12:57.084Z,9.70
2018-12-23T10:15:25.333Z,9.80
2018-12-23T10:17:53.828Z,9.80
2018-12-23T10:20:22.138Z,9.80
2018-12-23T10:22:50.345Z,9.90
2018-12-23T10:25:18.561Z,9.90
2018-12-23T10:27:46.805Z,9.90
2018-12-23T10:30:15.048Z,9.90
2018-12-23T10:32:43.239Z,9.90
2018-12-23T10:35:11.722Z,10.00
2018-12-23T10:37:40.060Z,10.00
2018-12-23T10:40:08.337Z,10.00
2018-12-23T10:42:36.583Z,10.00
2018-12-23T10:45:05.658Z,10.10
2018-12-23T10:47:34.861Z,10.00
2018-12-23T10:50:03.285Z,10.10
2018-12-23T10:52:31.650Z,10.10
2018-12-23T10:54:59.850Z,10.10
2018-12-23T10:57:28.306Z,10.10
2018-12-23T10:59:56.529Z,10.20
2018-12-23T11:02:24.815Z,10.20
2018-12-23T11:04:52.984Z,10.10
2018-12-23T11:07:21.212Z,10.10
2018-12-23T11:09:49.436Z,10.10
2018-12-23T11:12:17.772Z,10.20
2018-12-23T11:14:45.984Z,10.20
2018-12-23T11:17:14.340Z,10.20
2018-12-23T11:19:42.547Z,10.10
2018-12-23T11:22:10.935Z,10.20
2018-12-23T11:24:39.228Z,10.10
2018-12-23T11:27:07.427Z,10.20
2018-12-23T11:29:35.764Z,10.20
2018-12-23T11:32:03.918Z,10.20
2018-12-23T11:34:32.253Z,10.10
2018-12-23T11:37:00.426Z,10.10
2018-12-23T11:39:28.751Z,10.10
2018-12-23T11:41:56.993Z,10.10
2018-12-23T11:44:25.223Z,10.10
2018-12-23T11:46:53.723Z,10.10
2018-12-23T11:49:21.946Z,10.10
2018-12-23T11:51:50.252Z,10.10
2018-12-23T11:54:18.518Z,10.10
2018-12-23T11:56:46.812Z,10.10
2018-12-23T11:59:15.443Z,10.00
2018-12-23T12:01:43.921Z,10.00
2018-12-23T12:04:12.516Z,10.00
2018-12-23T12:06:40.746Z,9.90
2018-12-23T12:09:08.988Z,9.90
2018-12-23T12:11:37.343Z,10.00
2018-12-23T12:14:05.784Z,9.80
2018-12-23T12:16:34.202Z,9.90
2018-12-23T12:19:02.409Z,9.90
2018-12-23T12:21:30.809Z,9.90
2018-12-23T12:23:58.984Z,9.90
2018-12-23T12:26:27.152Z,10.00
2018-12-23T12:28:55.351Z,10.00
2018-12-23T12:31:23.620Z,10.00
2018-12-23T12:33:51.869Z,10.00
2018-12-23T12:36:20.129Z,10.00
2018-12-23T12:38:52.059Z,10.00
2018-12-23T12:41:18.529Z,10.00
2018-12-23T12:43:46.796Z,10.00
2018-12-23T12:46:15.057Z,10.00
2018-12-23T12:48:43.442Z,10.00
2018-12-23T12:51:11.613Z,10.00
2018-12-23T12:53:39.880Z,10.00
2018-12-23T12:56:08.093Z,10.00
2018-12-23T12:58:36.447Z,10.00
2018-12-23T13:01:04.728Z,9.90
2018-12-23T13:03:33.179Z,9.90
2018-12-23T13:06:01.417Z,9.90
2018-12-23T13:08:29.651Z,9.90
2018-12-23T13:10:57.949Z,9.80
2018-12-23T13:13:26.278Z,9.80
2018-12-23T13:15:54.590Z,9.80
2018-12-23T13:18:22.874Z,9.80
2018-12-23T13:20:51.058Z,9.80
2018-12-23T13:23:19.581Z,9.80
2018-12-23T13:25:47.826Z,9.80
2018-12-23T13:28:15.967Z,9.80
2018-12-23T13:30:44.176Z,9.90
2018-12-23T13:33:12.385Z,9.90
2018-12-23T13:35:40.681Z,9.80
2018-12-23T13:38:08.868Z,9.80
2018-12-23T13:40:46.664Z,9.70
2018-12-23T13:43:32.246Z,9.70
2018-12-23T13:46:09.503Z,9.70
2018-12-23T13:49:02.892Z,9.60
2018-12-23T13:52:12.572Z,9.50
2018-12-23T13:55:07.294Z,9.50
2018-12-23T13:57:49.684Z,9.40
2018-12-23T14:01:32.291Z,9.40
2018-12-23T14:04:14.098Z,9.40
2018-12-23T14:07:06.453Z,9.40
2018-12-23T14:10:20.314Z,9.40
2018-12-23T14:12:48.489Z,9.40
2018-12-23T14:15:16.721Z,9.40
2018-12-23T14:17:44.956Z,9.40
2018-12-23T14:20:13.336Z,9.40
2018-12-23T14:22:41.582Z,9.40
2018-12-23T14:25:09.876Z,9.30
2018-12-23T14:27:38.147Z,9.30
2018-12-23T14:30:06.911Z,9.40
2018-12-23T14:32:35.088Z,9.30
2018-12-23T14:35:03.339Z,9.30
2018-12-23T14:37:31.634Z,9.30
2018-12-23T14:39:59.818Z,9.30
2018-12-23T14:42:28.492Z,9.30
2018-12-23T14:44:56.688Z,9.30
2018-12-23T14:47:24.876Z,9.30
2018-12-23T14:49:53.128Z,9.30
2018-12-23T14:52:21.432Z,9.20
2018-12-23T14:54:49.734Z,9.10
2018-12-23T14:57:17.925Z,9.10
2018-12-23T14:59:46.186Z,9.10
2018-12-23T15:02:14.414Z,9.10
2018-12-23T15:04:42.696Z,9.10
2018-12-23T15:07:10.881Z,9.10
2018-12-23T15:09:39.363Z,9.10
2018-12-23T15:12:07.627Z,9.00
2018-12-23T15:14:35.817Z,9.10
2018-12-23T15:17:03.991Z,9.00
2018-12-23T15:19:32.171Z,9.00
2018-12-23T15:22:00.392Z,8.90
2018-12-23T15:24:28.576Z,8.90
2018-12-23T15:26:56.835Z,8.90
2018-12-23T15:29:25.150Z,8.80
2018-12-23T15:31:53.490Z,8.80
2018-12-23T15:34:21.672Z,8.80
2018-12-23T15:36:49.849Z,8.80
2018-12-23T15:39:18.015Z,8.70
2018-12-23T15:41:46.251Z,8.70
2018-12-23T15:44:14.540Z,8.70
2018-12-23T15:46:42.751Z,8.70
2018-12-23T15:49:10.916Z,8.70
2018-12-23T15:51:39.206Z,8.60
2018-12-23T15:54:07.437Z,8.60
2018-12-23T15:56:35.640Z,8.60
2018-12-23T16:02:35.364Z,8.40
2018-12-23T16:05:03.741Z,8.50
2018-12-23T16:07:32.076Z,8.50
2018-12-23T16:10:00.286Z,8.50
2018-12-23T16:12:28.464Z,8.50
2018-12-23T16:14:56.722Z,8.50
2018-12-23T16:18:16.459Z,8.40
2018-12-23T16:20:57.208Z,9.10
2018-12-23T16:23:38.445Z,8.90
2018-12-23T16:26:18.945Z,9.10
2018-12-23T16:28:59.801Z,8.50
2018-12-23T16:31:40.900Z,8.50
2018-12-23T16:34:21.433Z,8.50
2018-12-23T16:37:02.731Z,8.60
2018-12-23T16:39:43.160Z,8.60
2018-12-23T16:42:23.861Z,8.60
2018-12-23T16:45:04.975Z,9.20
2018-12-23T16:47:45.487Z,8.60
2018-12-23T16:50:25.935Z,8.60
2018-12-23T16:53:06.905Z,8.70
2018-12-23T16:55:47.826Z,8.70
2018-12-23T16:58:28.531Z,8.70
2018-12-23T17:01:09.122Z,8.70
2018-12-23T17:03:50.864Z,8.60
2018-12-23T17:06:31.476Z,8.60
2018-12-23T17:09:00.363Z,8.60
2018-12-23T17:11:48.664Z,8.60
2018-12-23T17:14:37.225Z,8.60
2018-12-23T17:20:13.419Z,8.70
2018-12-23T17:23:01.682Z,8.60
2018-12-23T17:25:50.248Z,9.20
2018-12-23T17:28:38.800Z,8.70
2018-12-23T17:31:27.175Z,8.60
2018-12-23T17:34:15.361Z,8.60
2018-12-23T17:36:44.589Z,8.70
2018-12-23T17:39:33.104Z,8.70
2018-12-23T17:42:21.757Z,8.70
2018-12-23T17:48:17.195Z,8.70
2018-12-23T17:54:05.778Z,8.70
2018-12-23T17:56:46.570Z,8.70
2018-12-23T17:59:27.469Z,8.60
2018-12-23T18:02:08.412Z,8.80
2018-12-23T18:04:49.894Z,8.70
2018-12-23T18:07:30.479Z,8.70
2018-12-23T18:10:12.098Z,8.90
2018-12-23T18:12:52.406Z,9.00
2018-12-23T18:15:33.317Z,8.70
2018-12-23T18:18:13.844Z,8.80
2018-12-23T18:20:54.618Z,9.50
2018-12-23T18:23:36.499Z,8.80
2018-12-23T18:26:17.676Z,8.80
2018-12-23T18:28:59.072Z,9.50
2018-12-23T18:31:39.680Z,8.80
2018-12-23T18:34:09.184Z,9.50
2018-12-23T18:36:57.535Z,8.80
2018-12-23T18:39:45.667Z,8.80
2018-12-23T18:42:34.014Z,8.80
2018-12-23T18:45:22.178Z,8.70
2018-12-23T18:48:10.505Z,8.70
2018-12-23T18:50:51.072Z,9.50
2018-12-23T18:53:31.771Z,9.50
2018-12-23T18:56:12.578Z,8.80
2018-12-23T18:58:53.520Z,9.30
2018-12-23T19:01:35.821Z,8.90
2018-12-23T19:04:16.733Z,8.90
2018-12-23T19:06:57.301Z,8.80
2018-12-23T19:09:37.897Z,8.90
2018-12-23T19:12:18.695Z,8.90
2018-12-23T19:14:59.435Z,8.90
2018-12-23T19:17:40.496Z,9.60
2018-12-23T19:20:21.277Z,8.90
2018-12-23T19:23:01.834Z,9.00
2018-12-23T19:25:42.778Z,9.90
2018-12-23T19:28:23.527Z,9.00
2018-12-23T19:31:04.578Z,9.00
2018-12-23T19:33:45.635Z,9.00
2018-12-23T19:36:26.541Z,9.10
2018-12-23T19:39:07.686Z,9.90
2018-12-23T19:41:48.215Z,9.10
2018-12-23T19:44:28.585Z,10.30
2018-12-23T19:47:09.366Z,9.20
2018-12-23T19:49:51.590Z,9.20
2018-12-23T19:52:33.121Z,9.20
2018-12-23T19:55:14.024Z,9.20
2018-12-23T19:57:54.407Z,9.20
2018-12-23T20:00:35.189Z,9.20
2018-12-23T20:03:16.291Z,9.20
2018-12-23T20:05:57.174Z,9.20
2018-12-23T20:08:38.103Z,10.20
2018-12-23T20:11:18.549Z,9.30
2018-12-23T20:13:59.483Z,9.90
2018-12-23T20:17:06.780Z,9.40
2018-12-23T20:20:14.024Z,9.40
2018-12-23T20:23:40.272Z,10.10
2018-12-23T20:26:47.507Z,9.40
2018-12-23T20:29:54.733Z,10.20
2018-12-23T20:33:02.215Z,9.60
2018-12-23T20:36:09.711Z,9.50
2018-12-23T20:39:17.313Z,9.50
2018-12-23T20:42:24.780Z,9.60
2018-12-23T20:45:33.047Z,9.60
2018-12-23T20:48:14.512Z,9.60
2018-12-23T20:50:55.565Z,9.70
2018-12-23T20:53:37.141Z,10.20
2018-12-23T20:56:18.688Z,9.70
2018-12-23T20:59:26.688Z,9.80
2018-12-23T21:02:21.494Z,9.80
2018-12-23T21:05:29.061Z,9.80
2018-12-23T21:11:50.929Z,10.00
2018-12-23T21:14:58.235Z,10.00
2018-12-23T21:18:05.772Z,10.10
2018-12-23T21:21:13.523Z,10.10
2018-12-23T21:24:21.905Z,10.20
2018-12-23T21:27:29.572Z,10.70
2018-12-23T21:30:36.832Z,10.40
2018-12-23T21:33:44.148Z,11.10
2018-12-23T21:36:36.038Z,10.40
2018-12-23T21:39:43.262Z,10.60
2018-12-23T21:42:50.553Z,10.50
2018-12-23T21:45:57.871Z,10.60
2018-12-23T21:49:17.876Z,11.20
2018-12-23T21:52:14.598Z,10.70
2018-12-23T21:55:22.046Z,10.80
2018-12-23T21:58:30.000Z,11.30
2018-12-23T22:01:37.323Z,11.60
2018-12-23T22:04:44.832Z,11.00
2018-12-23T22:07:52.496Z,11.00
2018-12-23T22:10:47.527Z,11.10
2018-12-23T22:13:54.869Z,11.10
2018-12-23T22:16:43.106Z,12.50
2018-12-23T22:19:31.181Z,11.60
2018-12-23T22:22:19.832Z,12.40
2018-12-23T22:25:07.965Z,11.20
2018-12-23T22:28:15.396Z,11.10
2018-12-23T22:31:03.749Z,11.20
2018-12-23T22:33:52.325Z,11.20
2018-12-23T22:36:40.629Z,11.20
2018-12-23T22:39:28.819Z,11.20
2018-12-23T22:42:10.086Z,11.20
2018-12-23T22:44:50.516Z,11.50
2018-12-23T22:47:19.482Z,11.40
2018-12-23T22:50:08.059Z,11.50
2018-12-23T22:52:56.147Z,11.50
2018-12-23T22:55:44.596Z,11.70
2018-12-23T22:58:32.735Z,11.80
2018-12-23T23:01:20.922Z,11.80
2018-12-23T23:04:09.135Z,12.00
2018-12-23T23:06:57.229Z,12.30
2018-12-23T23:09:45.383Z,12.10
2018-12-23T23:12:33.860Z,12.00
2018-12-23T23:18:16.427Z,13.20
2018-12-23T23:21:04.810Z,13.10
2018-12-23T23:23:52.960Z,12.50
2018-12-23T23:26:41.716Z,11.70
2018-12-23T23:29:29.843Z,11.60
2018-12-23T23:32:17.944Z,12.70
2018-12-23T23:35:06.038Z,11.60
2018-12-23T23:37:54.237Z,11.50
2018-12-23T23:40:35.462Z,11.70
2018-12-23T23:43:16.264Z,11.30
2018-12-23T23:45:57.188Z,10.30
2018-12-23T23:48:37.974Z,9.50
2018-12-23T23:51:18.737Z,9.00
2018-12-23T23:53:59.949Z,8.60
2018-12-23T23:56:41.193Z,8.40
2018-12-23T23:59:21.812Z,8.30
